Latest Coastal Weather Observations for Ballina

IDN60701

Issued at 10:21 am EST Friday 28 August 2015 (issued every 10 minutes, with the page automatically refreshed every 10 minutes)

About coastal observations | Map of coastal stations | Coastal observations for NSW | Marine services | Other Formats
Station Details ID: 058198 Name: BALLINA AIRPORT AWS Lat: -28.84 Lon: 153.56 Height: 1.3 m
Data from the previous 72 hours. | See also: Recent months at Ballina
Date/Time
EST
Temp

°C
Wind Pressure Rain
since 9am
mm
Weather Cloud Vis
km
Sea
Height
m
Swell
Dir
 
Speed
knots
Gust
knots
hPa Trend Height
m
Period
s
Dir
28/10:00am 19.4 WSW 10 13 1022.1 - 0.0 - Partly cloudy 10 - - - -
28/09:30am 18.6 SW 10 14 1022.1 - 0.0 - Partly cloudy 10 - - - -
28/09:00am 18.6 WSW 10 13 1022.3 - 3.6 - - 10 - - - -
28/08:30am 17.7 WSW 9 12 1022.4 - 3.6 - - 10 - - - -
28/08:00am 16.2 WSW 5 9 1021.9 - 3.6 - Partly cloudy 10 - - - -
28/07:30am 15.3 CALM 0 0 1021.8 - 3.6 - Partly cloudy 10 - - - -
28/07:00am 14.6 WSW 4 6 1021.3 - 3.6 - Partly cloudy 10 - - - -
28/06:30am 14.8 WSW 1 4 1020.9 - 3.4 - Cloudy 10 - - - -
28/06:00am 15.1 WSW 3 4 1020.5 - 3.4 - Mostly cloudy 10 - - - -
28/05:30am 15.1 WSW 3 4 1020.5 - 3.4 - Partly cloudy 10 - - - -
28/05:00am 15.2 W 5 6 1020.4 - 3.4 - Cloudy 10 - - - -
28/04:30am 15.3 WSW 4 5 1020.1 - 3.4 - Partly cloudy 10 - - - -
28/04:00am 15.3 W 3 5 1019.9 - 3.2 - Cloudy 10 - - - -
28/03:30am 15.4 SW 4 5 1019.7 - 3.2 - Partly cloudy 10 - - - -
28/03:00am 15.4 W 5 6 1019.6 - 3.2 - Mostly cloudy 10 - - - -
28/02:30am 15.4 W 5 7 1019.7 - 3.2 - Cloudy 10 - - - -
28/02:00am 15.3 NW 5 7 1019.6 - 3.2 - Partly cloudy 10 - - - -
28/01:30am 15.5 NNW 5 6 1019.8 - 3.0 - Partly cloudy 9 - - - -
28/01:00am 15.4 WNW 5 7 1020.3 - 2.8 - Cloudy 10 - - - -
28/12:30am 15.3 NW 3 6 1020.6 - 2.8 - Partly cloudy 10 - - - -
28/12:00am 15.1 CALM 0 0 1020.6 - 2.8 - Cloudy 10 - - - -
 
Date/Time
EST
Temp

°C
Wind Pressure Rain
since 9am
mm
Weather Cloud Vis
km
Sea
Height
m
Swell
Dir
 
Speed
knots
Gust
knots
hPa Trend Height
m
Period
s
Dir
27/11:30pm 15.1 CALM 0 0 1020.4 - 2.8 - Partly cloudy 10 - - - -
27/11:00pm 15.4 NW 4 5 1020.6 - 2.8 - Partly cloudy 10 - - - -
27/10:30pm 15.3 NW 3 4 1020.3 - 2.8 - Cloudy 10 - - - -
27/10:00pm 15.4 NNW 5 6 1020.7 - 2.8 - Cloudy 10 - - - -
27/09:30pm 15.4 NNW 5 7 1020.6 - 2.8 - Cloudy 10 - - - -
27/09:00pm 15.5 N 5 7 1020.4 - 2.8 - Cloudy 10 - - - -
27/08:30pm 15.3 NNW 3 5 1020.3 - 2.8 - Partly cloudy 10 - - - -
27/08:00pm 15.4 NNW 4 5 1020.3 - 2.8 - Partly cloudy 10 - - - -
27/07:30pm 15.1 N 3 4 1019.8 - 2.8 - Partly cloudy 10 - - - -
27/07:00pm 15.1 N 5 7 1019.8 - 2.8 - Partly cloudy 10 - - - -
27/06:30pm 14.9 N 4 6 1019.5 - 2.6 - Cloudy 10 - - - -
27/06:00pm 14.9 N 4 6 1019.6 - 2.6 Recent precip. Cloudy 10 - - - -
27/05:30pm 15.0 N 3 5 1019.7 - 2.6 - Partly cloudy 10 - - - -
27/05:00pm 14.9 NE 4 6 1019.4 - 2.4 - Cloudy 10 - - - -
27/04:30pm 15.0 NNE 5 6 1019.2 - 2.2 - Cloudy 10 - - - -
27/04:00pm 15.4 NE 2 4 1018.9 - 2.0 - Cloudy 10 - - - -
27/03:30pm 15.6 NNW 6 8 1019.1 - 1.6 - Partly cloudy 9 - - - -
27/03:19pm 15.7 NNW 5 9 1019.5 - 1.4 - Partly cloudy 8 - - - -
27/03:00pm 16.6 NW 5 7 1019.5 - 0.6 Rain Cloudy 5 - - - -
27/02:30pm 17.4 SSW 4 6 1018.4 - 0.0 - Partly cloudy 10 - - - -
27/02:00pm 17.6 WSW 7 8 1018.7 - 0.0 - Partly cloudy 10 - - - -
27/01:30pm 18.0 SW 5 7 1019.2 - 0.0 - Partly cloudy 10 - - - -
27/01:00pm 18.6 WSW 5 7 1019.4 - 0.0 - Cloudy 10 - - - -
27/12:30pm 18.8 SW 8 9 1020.0 - 0.0 - Cloudy 10 - - - -
27/12:00pm 18.6 WSW 8 9 1020.4 - 0.0 - Mostly cloudy 10 - - - -
27/11:30am 19.1 SW 8 10 1020.6 - 0.0 - Partly cloudy 10 - - - -
27/11:00am 19.8 SW 8 11 1021.0 - 0.0 - Partly cloudy 10 - - - -
27/10:30am 18.8 SSW 7 8 1021.3 - 0.0 - Partly cloudy 10 - - - -
27/10:00am 17.7 WSW 4 5 1021.7 - 0.0 - Cloudy 10 - - - -
27/09:30am 17.2 W 6 7 1021.8 - 0.0 - Cloudy 10 - - - -
27/09:00am 16.6 WSW 6 7 1021.9 - 0.0 - Cloudy 10 - - - -
27/08:30am 16.6 SW 6 8 1021.7 - 0.0 - Partly cloudy 10 - - - -
27/08:00am 16.4 W 4 5 1021.4 - 0.0 - Cloudy 10 - - - -
27/07:30am 15.9 NW 4 6 1021.0 - 0.0 - Partly cloudy 10 - - - -
27/07:00am 15.4 NW 5 6 1020.6 - 0.0 - Cloudy 10 - - - -
27/06:30am 14.9 WSW 2 4 1020.2 - 0.0 - - 10 - - - -
27/06:00am 15.1 WSW 3 4 1019.8 - 0.0 - Cloudy 10 - - - -
27/05:30am 15.2 WNW 3 4 1019.9 - 0.0 - Partly cloudy 10 - - - -
27/05:00am 15.6 WSW 7 9 1019.7 - 0.0 - Partly cloudy 10 - - - -
27/04:30am 16.2 WSW 6 8 1020.0 - 0.0 - Partly cloudy 10 - - - -
27/04:00am 15.6 W 8 9 1020.0 - 0.0 - Partly cloudy 10 - - - -
27/03:30am 16.3 SW 5 8 1019.2 - 0.0 - Partly cloudy 10 - - - -
27/03:00am 15.4 W 7 9 1019.4 - 0.0 - Cloudy 10 - - - -
27/02:30am 13.4 NNW 2 3 1019.5 - 0.0 - Partly cloudy 10 - - - -
27/02:00am 13.8 CALM 0 0 1019.5 - 0.0 - Cloudy 10 - - - -
27/01:30am 14.2 CALM 0 3 1019.6 - 0.0 - Cloudy 10 - - - -
27/01:00am 13.8 CALM 0 4 1019.9 - 0.0 - Cloudy 10 - - - -
27/12:30am 14.2 W 2 5 1020.1 - 0.0 - Partly cloudy 10 - - - -
27/12:00am 13.5 W 5 7 1020.3 - 0.0 - Mostly cloudy 10 - - - -
 
Date/Time
EST
Temp

°C
Wind Pressure Rain
since 9am
mm
Weather Cloud Vis
km
Sea
Height
m
Swell
Dir
 
Speed
knots
Gust
knots
hPa Trend Height
m
Period
s
Dir
26/11:30pm 13.8 CALM 0 0 1020.5 - 0.0 - - 10 - - - -
26/11:00pm 14.3 W 10 11 1020.4 - 0.0 - - 10 - - - -
26/10:30pm 13.9 W 9 11 1020.6 - 0.0 - - 10 - - - -
26/10:00pm 15.1 W 3 4 1020.8 - 0.0 - - 10 - - - -
26/09:57pm 14.4 W 4 6 1020.7 - 0.0 - - 10 - - - -
26/09:38pm 14.6 CALM 0 0 1020.7 - 0.0 - - 5 - - - -
26/09:30pm 14.9 CALM 0 0 1020.8 - 0.0 - - 10 - - - -
26/09:00pm 15.1 CALM 0 0 1020.6 - 0.0 - - 10 - - - -
26/08:30pm 16.4 NW 1 4 1020.5 - 0.0 - - 10 - - - -
26/08:00pm 16.8 NNW 1 3 1020.2 - 0.0 - - 10 - - - -
26/07:30pm 16.4 CALM 0 0 1019.9 - 0.0 - - 10 - - - -
26/07:00pm 18.1 N 4 4 1019.3 - 0.0 - - 10 - - - -
26/06:30pm 18.3 NNE 5 6 1018.8 - 0.0 - - 10 - - - -
26/06:00pm 18.9 NNE 6 7 1018.4 - 0.0 - - 10 - - - -
26/05:30pm 19.5 NNE 5 7 1018.1 - 0.0 - - 10 - - - -
26/05:00pm 20.8 NNE 7 10 1017.9 - 0.0 - - 10 - - - -
26/04:30pm 21.6 NE 8 11 1017.6 - 0.0 - - 10 - - - -
26/04:00pm 22.1 NE 8 11 1017.3 - 0.0 - - 10 - - - -
26/03:30pm 22.7 ENE 9 11 1017.2 - 0.0 - - 10 - - - -
26/03:00pm 23.6 ENE 9 12 1017.2 - 0.0 - - 10 - - - -
26/02:30pm 25.9 WSW 7 10 1017.3 - 0.0 - - 10 - - - -
26/02:00pm 25.9 W 8 13 1017.3 - 0.0 - - 10 - - - -
26/01:30pm 25.6 W 6 10 1017.7 - 0.0 - - 10 - - - -
26/01:00pm 25.3 WNW 9 13 1018.2 - 0.0 - - 10 - - - -
26/12:30pm 24.9 WNW 10 15 1018.4 - 0.0 - - 10 - - - -
26/12:00pm 24.4 WNW 9 14 1019.0 - 0.0 - - 10 - - - -
26/11:30am 24.2 WNW 7 13 1019.3 - 0.0 - - 10 - - - -
26/11:00am 23.6 WNW 10 13 1019.7 - 0.0 - - 10 - - - -
26/10:30am 23.3 NNW 8 11 1020.1 - 0.0 - - 10 - - - -
26/10:00am 22.8 NW 7 11 1020.4 - 0.0 - - 10 - - - -
26/09:30am 22.1 NW 7 10 1020.5 - 0.0 - - 10 - - - -
26/09:00am 21.3 NW 7 10 1020.7 - 0.0 - - 10 - - - -
26/08:30am 20.8 WNW 5 9 1020.6 - 0.0 - - 10 - - - -
26/08:00am 19.8 NW 5 8 1020.3 - 0.0 - Partly cloudy 10 - - - -
26/07:30am 18.2 WNW 3 6 1020.0 - 0.0 - - 10 - - - -
26/07:00am 15.3 W 6 8 1019.6 - 0.0 - - 10 - - - -
26/06:30am 13.9 WNW 6 7 1019.3 - 0.0 - - 10 - - - -
26/06:00am 13.8 W 4 5 1019.2 - 0.0 - Partly cloudy 10 - - - -
26/05:30am 13.8 W 4 5 1019.0 - 0.0 - - 10 - - - -
26/05:00am 14.3 NNW 5 6 1019.0 - 0.0 - - 10 - - - -
26/04:30am 13.8 W 6 7 1018.5 - 0.0 - - 10 - - - -
26/04:00am 14.3 WNW 4 5 1018.4 - 0.0 - - 10 - - - -
26/03:30am 14.2 W 6 7 1018.1 - 0.0 - - 10 - - - -
26/03:00am 14.9 WSW 7 9 1018.1 - 0.0 - - 10 - - - -
26/02:30am 14.5 W 6 7 1018.3 - 0.0 - - 10 - - - -
26/02:00am 14.4 W 5 5 1018.6 - 0.0 - - 10 - - - -
26/01:30am 14.9 WNW 5 6 1018.7 - 0.0 - - 10 - - - -
26/01:00am 15.1 W 8 9 1018.8 - 0.0 - - 10 - - - -
26/12:30am 15.4 W 7 9 1018.8 - 0.0 - - 10 - - - -
26/12:00am 16.2 W 6 7 1018.7 - 0.0 - - 10 - - - -
 
Date/Time
EST
Temp

°C
Wind Pressure Rain
since 9am
mm
Weather Cloud Vis
km
Sea
Height
m
Swell
Dir
 
Speed
knots
Gust
knots
hPa Trend Height
m
Period
s
Dir
25/11:30pm 15.6 W 6 7 1018.6 - 0.0 - - 10 - - - -
25/11:00pm 16.2 W 6 7 1018.7 - 0.0 - - 10 - - - -
25/10:30pm 16.2 WNW 7 8 1018.5 - 0.0 - - 10 - - - -
25/10:00pm 16.4 W 6 7 1018.4 - 0.0 - - 10 - - - -
25/09:30pm 15.9 WNW 4 5 1018.3 - 0.0 - - 10 - - - -
25/09:00pm 16.1 NW 3 4 1018.0 - 0.0 - - 10 - - - -
25/08:30pm 17.0 NW 1 3 1017.8 - 0.0 - - 10 - - - -
25/08:00pm 17.6 WSW 1 4 1017.5 - 0.0 - - 10 - - - -
25/07:30pm 18.6 SW 1 3 1017.1 - 0.0 - - 10 - - - -
25/07:00pm 19.4 N 3 5 1016.8 - 0.0 - - 10 - - - -
25/06:30pm 20.2 N 7 8 1016.4 - 0.0 - - 10 - - - -
25/06:00pm 21.0 N 7 9 1015.9 - 0.0 - - 10 - - - -
25/05:30pm 22.4 N 7 8 1015.6 - 0.0 - - 10 - - - -
25/05:00pm 25.1 NW 5 7 1015.2 - 0.0 - - 10 - - - -
25/04:30pm 26.0 NW 7 9 1014.9 - 0.0 - - 10 - - - -
25/04:00pm 26.6 NW 8 12 1014.6 - 0.0 - - 10 - - - -
25/03:30pm 26.7 NW 10 15 1014.5 - 0.0 - - 10 - - - -
25/03:00pm 27.0 NW 13 19 1014.5 - 0.0 - - 10 - - - -
25/02:30pm 27.1 WNW 12 18 1014.5 - 0.0 - - 10 - - - -
25/02:00pm 26.9 NW 10 14 1014.9 - 0.0 - - 10 - - - -
25/01:30pm 26.6 NW 15 20 1015.0 - 0.0 - - 10 - - - -
25/01:00pm 26.7 WNW 14 19 1014.8 - 0.0 - - 10 - - - -
25/12:30pm 26.5 WNW 12 21 1015.2 - 0.0 - - 10 - - - -
25/12:00pm 25.6 NE 7 15 1015.7 - 0.0 - - 10 - - - -
25/11:30am 25.2 N 6 9 1015.9 - 0.0 - - 10 - - - -
25/11:00am 24.7 NNE 6 8 1016.5 - 0.0 - - 10 - - - -
25/10:30am 23.9 ENE 8 10 1016.8 - 0.0 - - 10 - - - -

Other Formats:

Comma delimited format used in spreadsheet applications
http://www.bom.gov.au/fwo/IDN60701/IDN60701.94596.axf

JavaScript Object Notation format (JSON) in row-major order
http://www.bom.gov.au/fwo/IDN60701/IDN60701.94596.json